sensor_id;sensor_type;location;lat;lon;timestamp;P1;durP1;ratioP1;P2;durP2;ratioP2
27558;SDS011;15002;52.028;5.670;2023-04-24T00:00:07;5.55;;;3.55;;
27558;SDS011;15002;52.028;5.670;2023-04-24T00:02:38;4.43;;;3.45;;
27558;SDS011;15002;52.028;5.670;2023-04-24T00:05:04;4.72;;;3.78;;
27558;SDS011;15002;52.028;5.670;2023-04-24T00:07:30;4.88;;;3.67;;
27558;SDS011;15002;52.028;5.670;2023-04-24T00:09:56;3.38;;;3.05;;
27558;SDS011;15002;52.028;5.670;2023-04-24T00:12:22;3.75;;;3.35;;
27558;SDS011;15002;52.028;5.670;2023-04-24T00:14:48;5.85;;;3.60;;
27558;SDS011;15002;52.028;5.670;2023-04-24T00:17:14;3.88;;;3.47;;
27558;SDS011;15002;52.028;5.670;2023-04-24T00:19:40;4.32;;;3.42;;
27558;SDS011;15002;52.028;5.670;2023-04-24T00:22:06;7.68;;;3.40;;
27558;SDS011;15002;52.028;5.670;2023-04-24T00:24:31;4.00;;;3.30;;
27558;SDS011;15002;52.028;5.670;2023-04-24T00:26:58;4.78;;;3.28;;
27558;SDS011;15002;52.028;5.670;2023-04-24T00:29:24;7.05;;;3.38;;
27558;SDS011;15002;52.028;5.670;2023-04-24T00:31:50;3.65;;;2.97;;
27558;SDS011;15002;52.028;5.670;2023-04-24T00:34:15;4.78;;;3.10;;
27558;SDS011;15002;52.028;5.670;2023-04-24T00:36:41;3.70;;;3.15;;
27558;SDS011;15002;52.028;5.670;2023-04-24T00:39:07;3.30;;;2.88;;
27558;SDS011;15002;52.028;5.670;2023-04-24T00:41:35;4.07;;;3.05;;
27558;SDS011;15002;52.028;5.670;2023-04-24T00:44:01;3.30;;;3.00;;
27558;SDS011;15002;52.028;5.670;2023-04-24T00:46:27;4.85;;;2.72;;
27558;SDS011;15002;52.028;5.670;2023-04-24T00:48:53;4.35;;;3.15;;
27558;SDS011;15002;52.028;5.670;2023-04-24T00:51:20;3.60;;;3.13;;
27558;SDS011;15002;52.028;5.670;2023-04-24T00:53:46;2.83;;;2.28;;
27558;SDS011;15002;52.028;5.670;2023-04-24T00:56:12;3.45;;;1.83;;
27558;SDS011;15002;52.028;5.670;2023-04-24T00:58:38;3.45;;;2.00;;
27558;SDS011;15002;52.028;5.670;2023-04-24T01:01:04;2.80;;;2.00;;
27558;SDS011;15002;52.028;5.670;2023-04-24T01:03:32;2.55;;;1.90;;
27558;SDS011;15002;52.028;5.670;2023-04-24T01:05:58;3.33;;;2.40;;
27558;SDS011;15002;52.028;5.670;2023-04-24T01:08:24;2.58;;;2.35;;
27558;SDS011;15002;52.028;5.670;2023-04-24T01:10:53;2.63;;;2.30;;
27558;SDS011;15002;52.028;5.670;2023-04-24T01:13:20;1.63;;;1.52;;
27558;SDS011;15002;52.028;5.670;2023-04-24T01:15:46;1.30;;;0.93;;
27558;SDS011;15002;52.028;5.670;2023-04-24T01:18:12;1.63;;;1.10;;
27558;SDS011;15002;52.028;5.670;2023-04-24T01:20:39;1.05;;;0.85;;
27558;SDS011;15002;52.028;5.670;2023-04-24T01:23:06;0.90;;;0.80;;
27558;SDS011;15002;52.028;5.670;2023-04-24T01:25:33;1.15;;;0.75;;
27558;SDS011;15002;52.028;5.670;2023-04-24T01:27:59;1.15;;;0.60;;
27558;SDS011;15002;52.028;5.670;2023-04-24T01:30:25;0.98;;;0.80;;
27558;SDS011;15002;52.028;5.670;2023-04-24T01:32:51;1.50;;;1.10;;
27558;SDS011;15002;52.028;5.670;2023-04-24T01:35:18;1.20;;;0.90;;
27558;SDS011;15002;52.028;5.670;2023-04-24T01:37:44;1.75;;;0.82;;
27558;SDS011;15002;52.028;5.670;2023-04-24T01:40:10;1.30;;;1.13;;
27558;SDS011;15002;52.028;5.670;2023-04-24T01:42:37;3.40;;;1.60;;
27558;SDS011;15002;52.028;5.670;2023-04-24T01:45:03;2.45;;;1.48;;
27558;SDS011;15002;52.028;5.670;2023-04-24T01:47:33;2.10;;;1.80;;
27558;SDS011;15002;52.028;5.670;2023-04-24T01:49:59;1.58;;;1.42;;
27558;SDS011;15002;52.028;5.670;2023-04-24T01:52:24;1.80;;;1.70;;
27558;SDS011;15002;52.028;5.670;2023-04-24T01:54:50;3.17;;;1.63;;
27558;SDS011;15002;52.028;5.670;2023-04-24T01:57:17;1.58;;;1.48;;
27558;SDS011;15002;52.028;5.670;2023-04-24T01:59:43;1.45;;;1.35;;
27558;SDS011;15002;52.028;5.670;2023-04-24T02:02:08;1.80;;;1.50;;
27558;SDS011;15002;52.028;5.670;2023-04-24T02:04:34;3.15;;;1.50;;
27558;SDS011;15002;52.028;5.670;2023-04-24T02:06:59;1.50;;;1.40;;
27558;SDS011;15002;52.028;5.670;2023-04-24T02:09:25;2.00;;;1.70;;
27558;SDS011;15002;52.028;5.670;2023-04-24T02:11:51;2.30;;;2.10;;
27558;SDS011;15002;52.028;5.670;2023-04-24T02:14:16;3.83;;;2.50;;
27558;SDS011;15002;52.028;5.670;2023-04-24T02:16:42;3.78;;;2.60;;
27558;SDS011;15002;52.028;5.670;2023-04-24T02:19:08;3.85;;;3.20;;
27558;SDS011;15002;52.028;5.670;2023-04-24T02:21:34;6.72;;;3.92;;
27558;SDS011;15002;52.028;5.670;2023-04-24T02:24:00;7.18;;;3.95;;
27558;SDS011;15002;52.028;5.670;2023-04-24T02:26:26;6.20;;;4.10;;
27558;SDS011;15002;52.028;5.670;2023-04-24T02:28:51;6.88;;;4.47;;
27558;SDS011;15002;52.028;5.670;2023-04-24T02:31:17;6.32;;;4.65;;
27558;SDS011;15002;52.028;5.670;2023-04-24T02:33:43;6.50;;;4.75;;
27558;SDS011;15002;52.028;5.670;2023-04-24T02:36:08;7.82;;;5.70;;
27558;SDS011;15002;52.028;5.670;2023-04-24T02:38:34;6.85;;;5.22;;
27558;SDS011;15002;52.028;5.670;2023-04-24T02:41:00;8.05;;;5.97;;
27558;SDS011;15002;52.028;5.670;2023-04-24T02:43:27;7.85;;;5.82;;
27558;SDS011;15002;52.028;5.670;2023-04-24T02:45:52;8.82;;;6.05;;
27558;SDS011;15002;52.028;5.670;2023-04-24T02:48:18;8.80;;;6.43;;
27558;SDS011;15002;52.028;5.670;2023-04-24T02:50:45;11.23;;;6.57;;
27558;SDS011;15002;52.028;5.670;2023-04-24T02:53:11;10.70;;;7.28;;
27558;SDS011;15002;52.028;5.670;2023-04-24T02:55:37;10.32;;;7.38;;
27558;SDS011;15002;52.028;5.670;2023-04-24T02:58:02;11.13;;;7.85;;
27558;SDS011;15002;52.028;5.670;2023-04-24T03:00:28;11.88;;;8.27;;
27558;SDS011;15002;52.028;5.670;2023-04-24T03:02:54;13.18;;;8.48;;
27558;SDS011;15002;52.028;5.670;2023-04-24T03:05:19;11.52;;;7.95;;
27558;SDS011;15002;52.028;5.670;2023-04-24T03:07:45;10.52;;;7.50;;
27558;SDS011;15002;52.028;5.670;2023-04-24T03:10:11;12.55;;;8.38;;
27558;SDS011;15002;52.028;5.670;2023-04-24T03:12:36;11.82;;;7.80;;
27558;SDS011;15002;52.028;5.670;2023-04-24T03:15:02;10.18;;;7.45;;
27558;SDS011;15002;52.028;5.670;2023-04-24T03:17:28;11.68;;;6.88;;
27558;SDS011;15002;52.028;5.670;2023-04-24T03:19:54;9.65;;;7.00;;
27558;SDS011;15002;52.028;5.670;2023-04-24T03:22:19;8.93;;;6.72;;
27558;SDS011;15002;52.028;5.670;2023-04-24T03:24:45;10.95;;;7.18;;
27558;SDS011;15002;52.028;5.670;2023-04-24T03:27:11;10.18;;;6.70;;
27558;SDS011;15002;52.028;5.670;2023-04-24T03:29:36;9.73;;;7.10;;
27558;SDS011;15002;52.028;5.670;2023-04-24T03:32:02;9.32;;;7.15;;
27558;SDS011;15002;52.028;5.670;2023-04-24T03:34:28;12.93;;;7.35;;
27558;SDS011;15002;52.028;5.670;2023-04-24T03:36:54;9.98;;;7.97;;
27558;SDS011;15002;52.028;5.670;2023-04-24T03:39:20;12.65;;;8.65;;
27558;SDS011;15002;52.028;5.670;2023-04-24T03:41:45;14.02;;;10.27;;
27558;SDS011;15002;52.028;5.670;2023-04-24T03:44:11;23.23;;;13.73;;
27558;SDS011;15002;52.028;5.670;2023-04-24T03:46:37;17.05;;;10.27;;
27558;SDS011;15002;52.028;5.670;2023-04-24T03:49:02;18.00;;;11.32;;
27558;SDS011;15002;52.028;5.670;2023-04-24T03:51:28;17.55;;;11.82;;
27558;SDS011;15002;52.028;5.670;2023-04-24T03:53:55;18.20;;;12.43;;
27558;SDS011;15002;52.028;5.670;2023-04-24T03:56:20;15.98;;;12.05;;
27558;SDS011;15002;52.028;5.670;2023-04-24T03:58:46;21.50;;;14.85;;
27558;SDS011;15002;52.028;5.670;2023-04-24T04:01:12;21.77;;;14.25;;
27558;SDS011;15002;52.028;5.670;2023-04-24T04:03:38;22.85;;;15.32;;
27558;SDS011;15002;52.028;5.670;2023-04-24T04:06:03;21.75;;;14.60;;
27558;SDS011;15002;52.028;5.670;2023-04-24T04:08:29;26.02;;;15.30;;
27558;SDS011;15002;52.028;5.670;2023-04-24T04:10:55;24.50;;;17.08;;
27558;SDS011;15002;52.028;5.670;2023-04-24T04:13:21;28.55;;;19.40;;
27558;SDS011;15002;52.028;5.670;2023-04-24T04:15:46;29.58;;;19.80;;
27558;SDS011;15002;52.028;5.670;2023-04-24T04:18:12;30.60;;;20.08;;
27558;SDS011;15002;52.028;5.670;2023-04-24T04:20:37;33.28;;;20.60;;
27558;SDS011;15002;52.028;5.670;2023-04-24T04:23:03;33.20;;;20.95;;
27558;SDS011;15002;52.028;5.670;2023-04-24T04:25:29;34.53;;;21.25;;
27558;SDS011;15002;52.028;5.670;2023-04-24T04:27:54;34.38;;;22.70;;
27558;SDS011;15002;52.028;5.670;2023-04-24T04:30:20;33.70;;;20.67;;
27558;SDS011;15002;52.028;5.670;2023-04-24T04:32:46;34.78;;;20.42;;
27558;SDS011;15002;52.028;5.670;2023-04-24T04:35:12;31.58;;;19.88;;
27558;SDS011;15002;52.028;5.670;2023-04-24T04:37:37;31.35;;;19.98;;
27558;SDS011;15002;52.028;5.670;2023-04-24T04:40:03;31.83;;;21.50;;
27558;SDS011;15002;52.028;5.670;2023-04-24T04:42:32;33.33;;;20.65;;
27558;SDS011;15002;52.028;5.670;2023-04-24T04:45:05;31.27;;;19.55;;
27558;SDS011;15002;52.028;5.670;2023-04-24T04:47:33;23.85;;;15.75;;
27558;SDS011;15002;52.028;5.670;2023-04-24T04:49:59;24.40;;;15.80;;
27558;SDS011;15002;52.028;5.670;2023-04-24T04:52:25;23.77;;;16.13;;
27558;SDS011;15002;52.028;5.670;2023-04-24T04:54:51;26.38;;;16.42;;
27558;SDS011;15002;52.028;5.670;2023-04-24T04:57:17;23.23;;;16.63;;
27558;SDS011;15002;52.028;5.670;2023-04-24T04:59:42;26.40;;;15.93;;
27558;SDS011;15002;52.028;5.670;2023-04-24T05:02:08;19.95;;;14.50;;
27558;SDS011;15002;52.028;5.670;2023-04-24T05:04:34;20.40;;;13.95;;
27558;SDS011;15002;52.028;5.670;2023-04-24T05:07:00;19.85;;;12.98;;
27558;SDS011;15002;52.028;5.670;2023-04-24T05:09:25;18.73;;;11.77;;
27558;SDS011;15002;52.028;5.670;2023-04-24T05:11:52;16.27;;;9.95;;
27558;SDS011;15002;52.028;5.670;2023-04-24T05:14:18;13.05;;;10.02;;
27558;SDS011;15002;52.028;5.670;2023-04-24T05:16:44;12.18;;;8.43;;
27558;SDS011;15002;52.028;5.670;2023-04-24T05:19:10;14.20;;;9.38;;
27558;SDS011;15002;52.028;5.670;2023-04-24T05:21:36;13.88;;;9.23;;
27558;SDS011;15002;52.028;5.670;2023-04-24T05:24:04;11.05;;;8.10;;
27558;SDS011;15002;52.028;5.670;2023-04-24T05:26:30;16.95;;;8.65;;
27558;SDS011;15002;52.028;5.670;2023-04-24T05:28:56;13.35;;;8.13;;
27558;SDS011;15002;52.028;5.670;2023-04-24T05:31:21;11.60;;;8.07;;
27558;SDS011;15002;52.028;5.670;2023-04-24T05:33:47;12.30;;;7.10;;
27558;SDS011;15002;52.028;5.670;2023-04-24T05:36:13;9.43;;;6.30;;
27558;SDS011;15002;52.028;5.670;2023-04-24T05:38:38;8.02;;;6.15;;
27558;SDS011;15002;52.028;5.670;2023-04-24T05:41:04;9.80;;;5.70;;
27558;SDS011;15002;52.028;5.670;2023-04-24T05:43:30;8.80;;;6.18;;
27558;SDS011;15002;52.028;5.670;2023-04-24T05:45:55;9.43;;;5.68;;
27558;SDS011;15002;52.028;5.670;2023-04-24T05:48:21;7.25;;;5.15;;
27558;SDS011;15002;52.028;5.670;2023-04-24T05:50:47;8.27;;;5.03;;
27558;SDS011;15002;52.028;5.670;2023-04-24T05:53:13;6.65;;;4.20;;
27558;SDS011;15002;52.028;5.670;2023-04-24T05:55:39;5.68;;;3.85;;
27558;SDS011;15002;52.028;5.670;2023-04-24T05:58:05;5.75;;;3.72;;
27558;SDS011;15002;52.028;5.670;2023-04-24T06:00:31;6.55;;;4.10;;
27558;SDS011;15002;52.028;5.670;2023-04-24T06:02:59;4.47;;;3.72;;
27558;SDS011;15002;52.028;5.670;2023-04-24T06:05:25;4.40;;;3.60;;
27558;SDS011;15002;52.028;5.670;2023-04-24T06:07:51;5.65;;;3.70;;
27558;SDS011;15002;52.028;5.670;2023-04-24T06:10:17;4.38;;;3.63;;
27558;SDS011;15002;52.028;5.670;2023-04-24T06:12:43;4.88;;;3.75;;
27558;SDS011;15002;52.028;5.670;2023-04-24T06:15:08;5.32;;;3.63;;
27558;SDS011;15002;52.028;5.670;2023-04-24T06:17:35;5.15;;;3.67;;
27558;SDS011;15002;52.028;5.670;2023-04-24T06:20:00;5.18;;;4.07;;
27558;SDS011;15002;52.028;5.670;2023-04-24T06:22:26;6.88;;;3.83;;
27558;SDS011;15002;52.028;5.670;2023-04-24T06:24:52;5.65;;;4.00;;
27558;SDS011;15002;52.028;5.670;2023-04-24T06:27:17;5.40;;;3.95;;
27558;SDS011;15002;52.028;5.670;2023-04-24T06:29:43;4.55;;;3.47;;
27558;SDS011;15002;52.028;5.670;2023-04-24T06:32:09;5.78;;;2.92;;
27558;SDS011;15002;52.028;5.670;2023-04-24T06:34:34;4.05;;;2.60;;
27558;SDS011;15002;52.028;5.670;2023-04-24T06:37:01;3.15;;;2.58;;
27558;SDS011;15002;52.028;5.670;2023-04-24T06:39:27;8.57;;;4.68;;
27558;SDS011;15002;52.028;5.670;2023-04-24T06:41:52;5.30;;;3.15;;
27558;SDS011;15002;52.028;5.670;2023-04-24T06:44:18;3.78;;;2.63;;
27558;SDS011;15002;52.028;5.670;2023-04-24T06:46:44;3.53;;;2.63;;
27558;SDS011;15002;52.028;5.670;2023-04-24T06:49:09;4.90;;;2.60;;
27558;SDS011;15002;52.028;5.670;2023-04-24T06:51:35;3.55;;;2.53;;
27558;SDS011;15002;52.028;5.670;2023-04-24T06:54:01;5.32;;;3.78;;
27558;SDS011;15002;52.028;5.670;2023-04-24T06:56:27;5.15;;;3.40;;
27558;SDS011;15002;52.028;5.670;2023-04-24T06:58:54;4.60;;;3.70;;
27558;SDS011;15002;52.028;5.670;2023-04-24T07:01:19;5.40;;;3.42;;
27558;SDS011;15002;52.028;5.670;2023-04-24T07:03:45;5.82;;;3.40;;
27558;SDS011;15002;52.028;5.670;2023-04-24T07:06:11;3.65;;;2.53;;
27558;SDS011;15002;52.028;5.670;2023-04-24T07:08:37;4.00;;;2.08;;
27558;SDS011;15002;52.028;5.670;2023-04-24T07:11:03;3.10;;;2.20;;
27558;SDS011;15002;52.028;5.670;2023-04-24T07:13:29;3.60;;;2.05;;
27558;SDS011;15002;52.028;5.670;2023-04-24T07:15:55;3.40;;;1.75;;
27558;SDS011;15002;52.028;5.670;2023-04-24T07:18:21;5.70;;;2.72;;
27558;SDS011;15002;52.028;5.670;2023-04-24T07:20:47;4.97;;;3.50;;
27558;SDS011;15002;52.028;5.670;2023-04-24T07:23:15;6.32;;;4.20;;
27558;SDS011;15002;52.028;5.670;2023-04-24T07:25:40;7.30;;;4.85;;
27558;SDS011;15002;52.028;5.670;2023-04-24T07:28:06;7.60;;;5.07;;
27558;SDS011;15002;52.028;5.670;2023-04-24T07:30:32;8.90;;;5.97;;
27558;SDS011;15002;52.028;5.670;2023-04-24T07:32:58;8.35;;;6.38;;
27558;SDS011;15002;52.028;5.670;2023-04-24T07:35:25;10.20;;;6.78;;
27558;SDS011;15002;52.028;5.670;2023-04-24T07:37:52;13.27;;;7.10;;
27558;SDS011;15002;52.028;5.670;2023-04-24T07:40:19;11.10;;;7.28;;
27558;SDS011;15002;52.028;5.670;2023-04-24T07:42:45;14.80;;;7.75;;
27558;SDS011;15002;52.028;5.670;2023-04-24T07:45:13;13.02;;;8.07;;
27558;SDS011;15002;52.028;5.670;2023-04-24T07:47:39;14.15;;;7.85;;
27558;SDS011;15002;52.028;5.670;2023-04-24T07:50:08;16.30;;;9.18;;
27558;SDS011;15002;52.028;5.670;2023-04-24T07:52:35;14.65;;;8.70;;
27558;SDS011;15002;52.028;5.670;2023-04-24T07:55:01;14.20;;;8.80;;
27558;SDS011;15002;52.028;5.670;2023-04-24T07:57:27;15.27;;;8.10;;
27558;SDS011;15002;52.028;5.670;2023-04-24T07:59:54;16.30;;;8.57;;
27558;SDS011;15002;52.028;5.670;2023-04-24T08:02:20;17.10;;;8.55;;
27558;SDS011;15002;52.028;5.670;2023-04-24T08:04:51;15.73;;;8.85;;
27558;SDS011;15002;52.028;5.670;2023-04-24T08:07:18;14.57;;;7.82;;
27558;SDS011;15002;52.028;5.670;2023-04-24T08:09:43;13.48;;;7.90;;
27558;SDS011;15002;52.028;5.670;2023-04-24T08:12:09;13.23;;;7.82;;
27558;SDS011;15002;52.028;5.670;2023-04-24T08:14:35;16.35;;;8.60;;
27558;SDS011;15002;52.028;5.670;2023-04-24T08:17:00;14.45;;;8.23;;
27558;SDS011;15002;52.028;5.670;2023-04-24T08:19:27;14.65;;;8.32;;
27558;SDS011;15002;52.028;5.670;2023-04-24T08:21:53;12.98;;;8.57;;
27558;SDS011;15002;52.028;5.670;2023-04-24T08:24:18;12.60;;;7.55;;
27558;SDS011;15002;52.028;5.670;2023-04-24T08:26:44;13.65;;;8.43;;
27558;SDS011;15002;52.028;5.670;2023-04-24T08:29:10;15.68;;;8.68;;
27558;SDS011;15002;52.028;5.670;2023-04-24T08:31:35;13.25;;;7.63;;
27558;SDS011;15002;52.028;5.670;2023-04-24T08:34:01;12.40;;;7.75;;
27558;SDS011;15002;52.028;5.670;2023-04-24T08:36:27;16.65;;;8.13;;
27558;SDS011;15002;52.028;5.670;2023-04-24T08:38:52;13.40;;;8.02;;
27558;SDS011;15002;52.028;5.670;2023-04-24T08:41:18;14.52;;;9.35;;
27558;SDS011;15002;52.028;5.670;2023-04-24T08:43:47;15.32;;;9.20;;
27558;SDS011;15002;52.028;5.670;2023-04-24T08:46:13;12.13;;;6.28;;
27558;SDS011;15002;52.028;5.670;2023-04-24T08:48:41;11.32;;;5.95;;
27558;SDS011;15002;52.028;5.670;2023-04-24T08:51:08;12.70;;;5.20;;
27558;SDS011;15002;52.028;5.670;2023-04-24T08:53:34;8.88;;;4.20;;
27558;SDS011;15002;52.028;5.670;2023-04-24T08:56:01;11.15;;;4.30;;
27558;SDS011;15002;52.028;5.670;2023-04-24T08:58:27;8.65;;;3.70;;
27558;SDS011;15002;52.028;5.670;2023-04-24T09:00:54;8.00;;;3.78;;
27558;SDS011;15002;52.028;5.670;2023-04-24T09:03:20;13.85;;;4.45;;
27558;SDS011;15002;52.028;5.670;2023-04-24T09:05:47;8.13;;;3.33;;
27558;SDS011;15002;52.028;5.670;2023-04-24T09:08:14;15.30;;;3.72;;
27558;SDS011;15002;52.028;5.670;2023-04-24T09:10:42;11.02;;;3.97;;
27558;SDS011;15002;52.028;5.670;2023-04-24T09:13:08;7.53;;;3.03;;
27558;SDS011;15002;52.028;5.670;2023-04-24T09:15:35;10.57;;;3.78;;
27558;SDS011;15002;52.028;5.670;2023-04-24T09:18:05;9.70;;;2.90;;
27558;SDS011;15002;52.028;5.670;2023-04-24T09:20:56;12.32;;;3.10;;
27558;SDS011;15002;52.028;5.670;2023-04-24T09:23:29;15.68;;;3.30;;
27558;SDS011;15002;52.028;5.670;2023-04-24T09:25:56;10.15;;;2.97;;
27558;SDS011;15002;52.028;5.670;2023-04-24T09:28:37;9.55;;;3.22;;
27558;SDS011;15002;52.028;5.670;2023-04-24T09:31:08;8.43;;;2.75;;
27558;SDS011;15002;52.028;5.670;2023-04-24T09:33:36;19.38;;;3.63;;
27558;SDS011;15002;52.028;5.670;2023-04-24T09:36:02;9.57;;;2.40;;
27558;SDS011;15002;52.028;5.670;2023-04-24T09:38:35;8.02;;;2.72;;
27558;SDS011;15002;52.028;5.670;2023-04-24T09:41:02;15.40;;;3.03;;
27558;SDS011;15002;52.028;5.670;2023-04-24T09:43:31;7.07;;;2.35;;
27558;SDS011;15002;52.028;5.670;2023-04-24T09:45:57;8.65;;;2.55;;
27558;SDS011;15002;52.028;5.670;2023-04-24T09:48:30;9.15;;;2.72;;
27558;SDS011;15002;52.028;5.670;2023-04-24T09:50:57;9.02;;;3.65;;
27558;SDS011;15002;52.028;5.670;2023-04-24T09:53:23;13.38;;;3.42;;
27558;SDS011;15002;52.028;5.670;2023-04-24T09:55:50;12.90;;;3.30;;
27558;SDS011;15002;52.028;5.670;2023-04-24T09:58:18;13.82;;;3.17;;
27558;SDS011;15002;52.028;5.670;2023-04-24T10:00:49;15.32;;;3.55;;
27558;SDS011;15002;52.028;5.670;2023-04-24T10:03:18;12.20;;;3.00;;
27558;SDS011;15002;52.028;5.670;2023-04-24T10:05:44;13.88;;;2.83;;
27558;SDS011;15002;52.028;5.670;2023-04-24T10:08:12;9.75;;;2.90;;
27558;SDS011;15002;52.028;5.670;2023-04-24T10:10:39;12.00;;;3.00;;
27558;SDS011;15002;52.028;5.670;2023-04-24T10:13:07;7.90;;;2.42;;
27558;SDS011;15002;52.028;5.670;2023-04-24T10:15:35;8.48;;;2.50;;
27558;SDS011;15002;52.028;5.670;2023-04-24T10:18:02;9.55;;;2.55;;
27558;SDS011;15002;52.028;5.670;2023-04-24T10:20:31;11.63;;;2.83;;
27558;SDS011;15002;52.028;5.670;2023-04-24T10:22:59;9.60;;;2.40;;
27558;SDS011;15002;52.028;5.670;2023-04-24T10:25:29;7.97;;;1.95;;
27558;SDS011;15002;52.028;5.670;2023-04-24T10:27:56;7.50;;;2.30;;
27558;SDS011;15002;52.028;5.670;2023-04-24T10:30:25;8.30;;;2.08;;
27558;SDS011;15002;52.028;5.670;2023-04-24T10:35:21;7.78;;;1.60;;
27558;SDS011;15002;52.028;5.670;2023-04-24T10:37:52;9.68;;;2.35;;
27558;SDS011;15002;52.028;5.670;2023-04-24T10:45:33;9.10;;;2.40;;
27558;SDS011;15002;52.028;5.670;2023-04-24T10:50:29;7.35;;;2.03;;
27558;SDS011;15002;52.028;5.670;2023-04-24T10:53:07;7.78;;;1.50;;
27558;SDS011;15002;52.028;5.670;2023-04-24T10:55:46;4.40;;;1.45;;
27558;SDS011;15002;52.028;5.670;2023-04-24T10:58:12;6.93;;;2.00;;
27558;SDS011;15002;52.028;5.670;2023-04-24T11:00:39;5.03;;;1.17;;
27558;SDS011;15002;52.028;5.670;2023-04-24T11:03:22;5.40;;;1.40;;
27558;SDS011;15002;52.028;5.670;2023-04-24T11:06:03;2.42;;;1.52;;
27558;SDS011;15002;52.028;5.670;2023-04-24T11:08:31;5.45;;;1.05;;
27558;SDS011;15002;52.028;5.670;2023-04-24T11:11:08;5.63;;;1.17;;
27558;SDS011;15002;52.028;5.670;2023-04-24T11:21:44;3.95;;;1.30;;
27558;SDS011;15002;52.028;5.670;2023-04-24T11:32:15;5.28;;;0.70;;
27558;SDS011;15002;52.028;5.670;2023-04-24T11:34:45;3.17;;;0.80;;
27558;SDS011;15002;52.028;5.670;2023-04-24T11:37:12;2.00;;;0.70;;
27558;SDS011;15002;52.028;5.670;2023-04-24T11:39:44;2.50;;;0.90;;
27558;SDS011;15002;52.028;5.670;2023-04-24T11:42:09;2.13;;;0.90;;
27558;SDS011;15002;52.028;5.670;2023-04-24T11:44:35;4.88;;;1.50;;
27558;SDS011;15002;52.028;5.670;2023-04-24T11:47:05;2.83;;;0.60;;
27558;SDS011;15002;52.028;5.670;2023-04-24T11:49:32;2.83;;;0.80;;
27558;SDS011;15002;52.028;5.670;2023-04-24T11:51:57;4.20;;;1.05;;
27558;SDS011;15002;52.028;5.670;2023-04-24T11:54:25;4.13;;;0.90;;
27558;SDS011;15002;52.028;5.670;2023-04-24T11:56:51;1.85;;;1.10;;
27558;SDS011;15002;52.028;5.670;2023-04-24T11:59:17;3.60;;;1.10;;
27558;SDS011;15002;52.028;5.670;2023-04-24T12:01:46;2.78;;;0.90;;
27558;SDS011;15002;52.028;5.670;2023-04-24T12:04:14;5.97;;;1.13;;
27558;SDS011;15002;52.028;5.670;2023-04-24T12:06:40;5.35;;;1.25;;
27558;SDS011;15002;52.028;5.670;2023-04-24T12:09:23;4.97;;;0.90;;
27558;SDS011;15002;52.028;5.670;2023-04-24T12:11:53;5.30;;;0.85;;
27558;SDS011;15002;52.028;5.670;2023-04-24T12:14:22;5.28;;;1.10;;
27558;SDS011;15002;52.028;5.670;2023-04-24T12:16:48;3.78;;;0.80;;
27558;SDS011;15002;52.028;5.670;2023-04-24T12:19:21;2.95;;;0.63;;
27558;SDS011;15002;52.028;5.670;2023-04-24T12:22:09;4.18;;;0.95;;
27558;SDS011;15002;52.028;5.670;2023-04-24T12:24:34;3.38;;;1.15;;
27558;SDS011;15002;52.028;5.670;2023-04-24T12:26:59;4.53;;;1.10;;
27558;SDS011;15002;52.028;5.670;2023-04-24T12:29:26;4.68;;;0.60;;
27558;SDS011;15002;52.028;5.670;2023-04-24T12:31:52;3.60;;;0.55;;
27558;SDS011;15002;52.028;5.670;2023-04-24T12:34:18;3.13;;;0.70;;
27558;SDS011;15002;52.028;5.670;2023-04-24T12:36:48;6.82;;;0.90;;
27558;SDS011;15002;52.028;5.670;2023-04-24T12:39:17;4.10;;;0.77;;
27558;SDS011;15002;52.028;5.670;2023-04-24T12:41:54;2.03;;;0.77;;
27558;SDS011;15002;52.028;5.670;2023-04-24T12:44:31;2.15;;;0.60;;
27558;SDS011;15002;52.028;5.670;2023-04-24T12:46:59;3.72;;;1.00;;
27558;SDS011;15002;52.028;5.670;2023-04-24T12:49:25;4.38;;;1.17;;
27558;SDS011;15002;52.028;5.670;2023-04-24T12:51:51;5.18;;;1.00;;
27558;SDS011;15002;52.028;5.670;2023-04-24T12:54:17;2.53;;;0.80;;
27558;SDS011;15002;52.028;5.670;2023-04-24T12:56:42;1.95;;;0.95;;
27558;SDS011;15002;52.028;5.670;2023-04-24T12:59:08;3.75;;;1.35;;
27558;SDS011;15002;52.028;5.670;2023-04-24T13:01:34;7.00;;;1.08;;
27558;SDS011;15002;52.028;5.670;2023-04-24T13:03:59;5.03;;;1.10;;
27558;SDS011;15002;52.028;5.670;2023-04-24T13:06:25;3.20;;;0.90;;
27558;SDS011;15002;52.028;5.670;2023-04-24T13:08:51;6.10;;;1.17;;
27558;SDS011;15002;52.028;5.670;2023-04-24T13:11:17;5.45;;;1.10;;
27558;SDS011;15002;52.028;5.670;2023-04-24T13:13:43;5.32;;;1.25;;
27558;SDS011;15002;52.028;5.670;2023-04-24T13:16:09;4.53;;;1.20;;
27558;SDS011;15002;52.028;5.670;2023-04-24T13:18:35;7.15;;;1.55;;
27558;SDS011;15002;52.028;5.670;2023-04-24T13:21:01;8.88;;;1.48;;
27558;SDS011;15002;52.028;5.670;2023-04-24T13:23:26;7.68;;;1.52;;
27558;SDS011;15002;52.028;5.670;2023-04-24T13:25:53;5.50;;;1.50;;
27558;SDS011;15002;52.028;5.670;2023-04-24T13:28:22;2.97;;;1.10;;
27558;SDS011;15002;52.028;5.670;2023-04-24T13:30:48;7.10;;;1.27;;
27558;SDS011;15002;52.028;5.670;2023-04-24T13:33:14;8.18;;;1.90;;
27558;SDS011;15002;52.028;5.670;2023-04-24T13:35:39;6.60;;;1.35;;
27558;SDS011;15002;52.028;5.670;2023-04-24T13:38:05;8.48;;;1.77;;
27558;SDS011;15002;52.028;5.670;2023-04-24T13:40:31;6.72;;;1.98;;
27558;SDS011;15002;52.028;5.670;2023-04-24T13:42:57;8.27;;;1.70;;
27558;SDS011;15002;52.028;5.670;2023-04-24T13:45:23;4.55;;;1.30;;
27558;SDS011;15002;52.028;5.670;2023-04-24T13:47:49;6.78;;;1.65;;
27558;SDS011;15002;52.028;5.670;2023-04-24T13:50:15;6.85;;;1.88;;
27558;SDS011;15002;52.028;5.670;2023-04-24T13:52:41;8.32;;;2.00;;
27558;SDS011;15002;52.028;5.670;2023-04-24T13:55:06;8.73;;;1.50;;
27558;SDS011;15002;52.028;5.670;2023-04-24T13:57:32;9.75;;;2.58;;
27558;SDS011;15002;52.028;5.670;2023-04-24T13:59:58;9.32;;;1.80;;
27558;SDS011;15002;52.028;5.670;2023-04-24T14:02:28;18.57;;;2.83;;
27558;SDS011;15002;52.028;5.670;2023-04-24T14:04:54;8.27;;;2.00;;
27558;SDS011;15002;52.028;5.670;2023-04-24T14:07:20;8.40;;;2.15;;
27558;SDS011;15002;52.028;5.670;2023-04-24T14:09:46;16.33;;;4.40;;
27558;SDS011;15002;52.028;5.670;2023-04-24T14:12:12;10.48;;;2.42;;
27558;SDS011;15002;52.028;5.670;2023-04-24T14:14:39;9.30;;;2.83;;
27558;SDS011;15002;52.028;5.670;2023-04-24T14:17:05;12.82;;;2.30;;
27558;SDS011;15002;52.028;5.670;2023-04-24T14:19:30;9.15;;;2.22;;
27558;SDS011;15002;52.028;5.670;2023-04-24T14:21:56;11.32;;;2.55;;
27558;SDS011;15002;52.028;5.670;2023-04-24T14:24:23;7.93;;;2.20;;
27558;SDS011;15002;52.028;5.670;2023-04-24T14:26:48;9.25;;;2.38;;
27558;SDS011;15002;52.028;5.670;2023-04-24T14:29:14;9.10;;;1.90;;
27558;SDS011;15002;52.028;5.670;2023-04-24T14:31:41;9.00;;;2.30;;
27558;SDS011;15002;52.028;5.670;2023-04-24T14:34:07;13.02;;;2.00;;
27558;SDS011;15002;52.028;5.670;2023-04-24T14:36:34;8.88;;;2.05;;
27558;SDS011;15002;52.028;5.670;2023-04-24T14:39:00;9.93;;;2.45;;
27558;SDS011;15002;52.028;5.670;2023-04-24T14:41:30;8.30;;;2.17;;
27558;SDS011;15002;52.028;5.670;2023-04-24T14:43:56;8.23;;;2.15;;
27558;SDS011;15002;52.028;5.670;2023-04-24T14:46:22;5.88;;;2.05;;
27558;SDS011;15002;52.028;5.670;2023-04-24T14:48:47;9.27;;;2.30;;
27558;SDS011;15002;52.028;5.670;2023-04-24T14:51:13;9.45;;;2.78;;
27558;SDS011;15002;52.028;5.670;2023-04-24T14:53:39;9.88;;;2.58;;
27558;SDS011;15002;52.028;5.670;2023-04-24T14:56:04;9.57;;;2.30;;
27558;SDS011;15002;52.028;5.670;2023-04-24T14:58:30;9.80;;;2.58;;
27558;SDS011;15002;52.028;5.670;2023-04-24T15:00:56;7.85;;;2.42;;
27558;SDS011;15002;52.028;5.670;2023-04-24T15:03:22;8.23;;;2.20;;
27558;SDS011;15002;52.028;5.670;2023-04-24T15:05:48;8.27;;;3.33;;